MAPA DE AEROPUERTO

INFORMACIÓN METAR y TAF


Deprecated: The each() function is deprecated. This message will be suppressed on further calls in /home/customer/www/clickair-va.com/public_html/VAM/vam/helpers/get_metar.php on line 20
METAR FOR LECH
ADDS - METARS form results

(0303 UTC 25 May 2022)
Data provider http://aviationweather.gov/metar/data/
 
METAR text: LECH 250230Z AUTO 02008KT 310V070 CAVOK 13/06 Q1013
Conditions at: LECH (CASTELLON , ES) observed 0230 UTC 25 May 2022
Temperature: 13.0°C (55°F)
Dewpoint: 6.0°C (43°F) [RH = 62%]
Pressure (altimeter): 29.91 inches Hg (1013.0 mb)
Winds: from the NNE (20 degrees) at 9 MPH (8 knots; 4.1 m/s)
Visibility: 6 or more miles (10+ km)
Ceiling: ceiling and visibility are OK
Clouds: unknown
Weather: no significant weather observed at this time